Time;durP1;ratioP1;P1;durP2;ratioP2;P2;SDS_P1;SDS_P2;PMS_P1;PMS_P2;Temp;Humidity;BMP_temperature;BMP_pressure;BME280_temperature;BME280_humidity;BME280_pressure;Samples;Min_cycle;Max_cycle;Signal;HPM_P1;HPM_P2
2023/10/19 00:01:15;;;;;;;18.03;17.03;;;13.50;72.50;;;;;;5091917;28;21025;-83
2023/10/19 00:03:44;;;;;;;18.83;17.87;;;13.50;99.90;;;;;;5094267;28;20477;-83
2023/10/19 00:06:12;;;;;;;17.63;16.83;;;13.50;99.90;;;;;;5093173;28;20457;-83
2023/10/19 00:08:41;;;;;;;17.40;16.70;;;13.60;99.90;;;;;;5094503;28;20490;-83
2023/10/19 00:11:21;;;;;;;16.93;16.23;;;13.50;99.90;;;;;;5091982;28;20473;-83
2023/10/19 00:13:50;;;;;;;17.20;16.40;;;13.50;99.90;;;;;;5088239;28;20489;-83
2023/10/19 00:16:22;;;;;;;17.10;16.43;;;13.50;1.00;;;;;;5088464;28;20477;-82
2023/10/19 00:18:52;;;;;;;17.17;16.50;;;13.50;1.00;;;;;;5091567;28;20462;-82
2023/10/19 00:21:23;;;;;;;17.30;16.60;;;13.60;1.00;;;;;;5092691;28;21778;-82
2023/10/19 00:23:56;;;;;;;17.37;16.60;;;13.60;1.00;;;;;;5097856;28;20469;-82
2023/10/19 00:26:26;;;;;;;16.53;15.90;;;13.60;1.00;;;;;;5093326;28;20450;-81
2023/10/19 00:28:55;;;;;;;17.00;16.30;;;13.70;1.00;;;;;;5095462;28;20457;-81
2023/10/19 00:31:24;;;;;;;17.20;16.40;;;13.70;1.00;;;;;;5089163;28;20461;-82
2023/10/19 00:33:52;;;;;;;17.03;16.43;;;13.70;1.00;;;;;;5090651;28;20473;-82
2023/10/19 00:36:21;;;;;;;16.83;16.17;;;13.70;1.00;;;;;;5090759;28;20612;-82
2023/10/19 00:38:52;;;;;;;17.40;16.70;;;13.80;1.00;;;;;;5087331;28;20445;-82
2023/10/19 00:41:24;;;;;;;17.10;16.50;;;13.80;1.00;;;;;;5092808;28;20516;-82
2023/10/19 00:43:57;;;;;;;18.23;17.30;;;13.80;1.00;;;;;;5092535;28;20468;-82
2023/10/19 00:46:32;;;;;;;17.10;16.40;;;13.80;1.00;;;;;;5090902;28;20454;-83
2023/10/19 00:49:06;;;;;;;18.07;17.23;;;13.90;1.00;;;;;;5088356;28;20965;-82
2023/10/19 00:51:50;;;;;;;17.23;16.40;;;13.90;1.00;;;;;;5093744;28;20445;-83
2023/10/19 00:54:26;;;;;;;17.97;17.07;;;13.90;1.00;;;;;;5088634;28;20477;-82
2023/10/19 00:56:56;;;;;;;17.70;16.80;;;13.90;1.00;;;;;;5087575;28;20538;-82
2023/10/19 00:59:24;;;;;;;16.63;15.93;;;13.90;1.00;;;;;;5091031;28;20449;-83
2023/10/19 01:01:57;;;;;;;17.90;17.10;;;13.90;1.00;;;;;;5093660;28;20458;-82
2023/10/19 01:04:31;;;;;;;16.47;15.87;;;13.90;1.00;;;;;;5092640;28;20499;-82
2023/10/19 01:07:05;;;;;;;16.53;15.70;;;13.90;1.00;;;;;;5091695;28;20462;-81
2023/10/19 01:09:36;;;;;;;17.40;16.40;;;14.00;1.00;;;;;;5089117;28;20454;-82
2023/10/19 01:12:21;;;;;;;17.00;16.17;;;14.00;1.00;;;;;;5091587;28;20450;-81
2023/10/19 01:15:05;;;;;;;16.77;15.93;;;13.90;1.00;;;;;;5091038;28;20458;-82
2023/10/19 01:17:38;;;;;;;18.90;17.80;;;14.00;1.00;;;;;;5094901;28;20478;-82
2023/10/19 01:20:18;;;;;;;16.87;16.20;;;14.10;1.00;;;;;;5097486;28;20465;-82
2023/10/19 01:22:54;;;;;;;17.53;16.60;;;14.00;1.00;;;;;;5098586;28;20465;-82
2023/10/19 01:25:34;;;;;;;17.90;17.10;;;14.10;1.00;;;;;;5091503;28;20451;-82
2023/10/19 01:28:08;;;;;;;17.27;16.33;;;14.10;1.00;;;;;;5092945;28;20850;-82
2023/10/19 01:30:38;;;;;;;18.07;17.17;;;14.10;1.00;;;;;;5092861;28;20458;-83
2023/10/19 01:33:12;;;;;;;17.97;17.07;;;14.20;1.00;;;;;;5094397;27;20489;-83
2023/10/19 01:38:25;;;;;;;17.53;16.80;;;14.30;1.00;;;;;;5093598;28;20477;-83
2023/10/19 01:40:54;;;;;;;17.17;16.37;;;14.30;1.00;;;;;;5096713;28;20450;-83
2023/10/19 01:43:25;;;;;;;17.37;16.47;;;14.30;1.00;;;;;;5094957;28;20473;-83
2023/10/19 01:45:54;;;;;;;17.30;16.43;;;14.30;1.00;;;;;;5088756;28;21241;-83
2023/10/19 01:48:31;;;;;;;17.33;16.27;;;14.30;1.00;;;;;;5091331;28;20472;-82
2023/10/19 01:51:00;;;;;;;17.20;16.50;;;14.30;1.00;;;;;;5096852;27;20464;-83
2023/10/19 01:53:29;;;;;;;17.53;16.80;;;14.30;1.00;;;;;;5092329;28;20473;-82
2023/10/19 01:55:58;;;;;;;17.97;17.17;;;14.30;1.00;;;;;;5091932;28;21219;-82
2023/10/19 01:58:26;;;;;;;18.07;17.27;;;14.30;1.00;;;;;;5095297;28;20489;-83
2023/10/19 02:01:00;;;;;;;17.50;16.70;;;14.30;1.00;;;;;;5091143;28;20465;-83
2023/10/19 02:03:28;;;;;;;17.10;16.20;;;14.30;1.00;;;;;;5094169;28;20626;-83
2023/10/19 02:05:59;;;;;;;18.07;17.10;;;14.30;1.00;;;;;;5091465;28;20484;-83
2023/10/19 02:08:28;;;;;;;18.30;17.43;;;14.30;1.00;;;;;;5095261;28;20839;-84
2023/10/19 02:10:57;;;;;;;18.10;17.30;;;14.30;1.00;;;;;;5092959;28;20441;-82
2023/10/19 02:13:25;;;;;;;18.70;17.53;;;14.20;1.00;;;;;;5094756;28;20469;-83
2023/10/19 02:15:54;;;;;;;19.30;18.13;;;14.20;1.00;;;;;;5092570;28;20561;-83
2023/10/19 02:18:21;;;;;;;18.60;17.80;;;14.10;1.00;;;;;;5093712;28;20473;-83
2023/10/19 02:20:52;;;;;;;18.70;17.70;;;14.10;1.00;;;;;;5090478;28;20581;-83
2023/10/19 02:23:19;;;;;;;18.90;17.90;;;14.00;1.00;;;;;;5092025;28;20550;-82
2023/10/19 02:25:49;;;;;;;19.80;18.80;;;14.00;1.00;;;;;;5095374;28;20453;-81
2023/10/19 02:28:18;;;;;;;19.50;18.50;;;14.00;1.00;;;;;;5093004;28;20454;-82
2023/10/19 02:30:46;;;;;;;19.80;18.90;;;13.90;1.00;;;;;;5095144;28;20522;-82
2023/10/19 02:33:14;;;;;;;20.10;19.07;;;13.90;1.00;;;;;;5092465;28;20473;-82
2023/10/19 02:35:42;;;;;;;20.50;19.27;;;13.90;1.00;;;;;;5093097;28;20460;-82
2023/10/19 02:38:09;;;;;;;18.50;17.60;;;13.80;1.00;;;;;;5092579;28;20492;-82
2023/10/19 02:40:40;;;;;;;17.83;17.13;;;13.80;1.00;;;;;;5090025;28;20466;-83
2023/10/19 02:43:09;;;;;;;19.20;17.80;;;13.80;1.00;;;;;;5094679;28;20484;-83
2023/10/19 02:45:38;;;;;;;18.60;17.70;;;13.80;1.00;;;;;;5090460;28;20457;-82
2023/10/19 02:48:11;;;;;;;17.73;16.93;;;13.80;1.00;;;;;;5094630;28;20605;-82
2023/10/19 02:50:39;;;;;;;17.67;16.77;;;13.80;1.00;;;;;;5094713;28;21251;-83
2023/10/19 02:53:12;;;;;;;18.40;17.60;;;13.80;1.00;;;;;;5089066;28;20486;-82
2023/10/19 02:55:40;;;;;;;17.73;16.83;;;13.80;1.00;;;;;;5092831;28;20453;-83
2023/10/19 02:58:10;;;;;;;18.10;17.20;;;13.90;1.00;;;;;;5089299;28;20493;-82
2023/10/19 03:00:37;;;;;;;17.87;16.97;;;13.80;1.00;;;;;;5094303;28;20457;-83
2023/10/19 03:03:07;;;;;;;17.57;16.77;;;13.80;1.00;;;;;;5093801;28;20519;-82
2023/10/19 03:05:34;;;;;;;18.10;17.20;;;13.80;1.00;;;;;;5093524;28;20502;-82
2023/10/19 03:08:05;;;;;;;17.10;16.40;;;13.80;1.00;;;;;;5091461;28;20873;-82
2023/10/19 03:10:38;;;;;;;18.17;17.27;;;13.60;1.00;;;;;;5093874;28;20459;-82
2023/10/19 03:13:06;;;;;;;18.27;17.47;;;13.60;1.00;;;;;;5089525;28;20465;-83
2023/10/19 03:15:35;;;;;;;17.27;16.47;;;13.60;99.90;;;;;;5090973;28;20486;-83
2023/10/19 03:18:04;;;;;;;16.57;15.87;;;13.50;1.00;;;;;;5089521;28;21010;-82
2023/10/19 03:20:33;;;;;;;17.43;16.70;;;13.60;1.00;;;;;;5094567;28;20532;-82
2023/10/19 03:23:02;;;;;;;16.90;16.30;;;13.70;1.00;;;;;;5093971;28;20545;-82
2023/10/19 03:25:49;;;;;;;17.27;16.37;;;13.70;1.00;;;;;;5090597;28;20445;-82
2023/10/19 03:28:18;;;;;;;17.50;16.80;;;13.80;1.00;;;;;;5090420;28;21116;-82
2023/10/19 03:30:47;;;;;;;18.07;17.23;;;13.90;1.00;;;;;;5089967;28;20447;-82
2023/10/19 03:33:18;;;;;;;17.17;16.37;;;13.80;1.00;;;;;;5090241;28;20548;-83
2023/10/19 03:35:46;;;;;;;18.07;17.17;;;13.90;1.00;;;;;;5092026;28;20967;-83
2023/10/19 03:38:17;;;;;;;17.13;16.43;;;13.90;1.00;;;;;;5093721;28;20526;-83
2023/10/19 03:40:51;;;;;;;16.90;16.30;;;13.90;1.00;;;;;;5094200;28;20535;-82
2023/10/19 03:43:21;;;;;;;17.40;16.63;;;13.80;1.00;;;;;;5094526;28;21070;-82
2023/10/19 03:45:52;;;;;;;18.17;17.13;;;13.80;1.00;;;;;;5091662;28;20464;-83
2023/10/19 03:48:26;;;;;;;17.90;17.00;;;13.80;1.00;;;;;;5094972;28;20442;-83
2023/10/19 03:50:56;;;;;;;17.33;16.43;;;13.80;1.00;;;;;;5090495;27;21064;-83
2023/10/19 03:53:24;;;;;;;17.30;16.63;;;13.80;1.00;;;;;;5090351;28;20478;-83
2023/10/19 03:55:54;;;;;;;18.07;17.27;;;13.80;1.00;;;;;;5088677;28;20458;-84
2023/10/19 03:58:28;;;;;;;17.90;16.90;;;13.80;1.00;;;;;;5090525;28;20474;-83
2023/10/19 04:01:04;;;;;;;17.27;16.53;;;13.80;1.00;;;;;;5086480;28;20450;-82
2023/10/19 04:03:34;;;;;;;17.03;16.23;;;13.80;1.00;;;;;;5082968;28;20496;-83
2023/10/19 04:06:04;;;;;;;16.90;16.20;;;13.90;1.00;;;;;;5089350;28;20588;-84
2023/10/19 04:08:37;;;;;;;18.35;17.35;;;13.90;1.00;;;;;;5088982;28;20447;-83
2023/10/19 04:11:21;;;;;;;17.93;17.03;;;13.90;1.00;;;;;;5090916;28;20208;-83
2023/10/19 04:13:53;;;;;;;18.30;17.47;;;14.00;1.00;;;;;;5089126;28;20485;-83
2023/10/19 04:16:23;;;;;;;17.90;17.10;;;14.00;1.00;;;;;;5096661;28;20453;-82
2023/10/19 04:18:51;;;;;;;18.30;17.00;;;14.00;1.00;;;;;;5098836;28;20492;-82
2023/10/19 04:21:19;;;;;;;17.70;16.80;;;14.00;1.00;;;;;;5094833;28;20461;-83
2023/10/19 04:23:47;;;;;;;18.23;17.43;;;14.00;1.00;;;;;;5093999;28;20473;-82
2023/10/19 04:26:18;;;;;;;18.77;17.77;;;13.90;1.00;;;;;;5096339;28;20561;-83
2023/10/19 04:28:49;;;;;;;18.00;17.20;;;14.00;1.00;;;;;;5099001;28;20811;-83
2023/10/19 04:31:19;;;;;;;18.47;17.67;;;14.00;1.00;;;;;;5089956;28;20446;-83
2023/10/19 04:33:49;;;;;;;17.70;16.97;;;13.90;1.00;;;;;;5092185;28;20598;-80
2023/10/19 04:36:21;;;;;;;18.87;18.00;;;13.90;1.00;;;;;;5089033;28;21263;-78
2023/10/19 04:38:49;;;;;;;17.87;17.17;;;13.90;1.00;;;;;;5091472;28;20473;-82
2023/10/19 04:41:17;;;;;;;17.83;17.13;;;13.90;1.00;;;;;;5091378;28;20464;-82
2023/10/19 04:43:49;;;;;;;18.20;17.40;;;13.90;1.00;;;;;;5091654;28;20487;-82
2023/10/19 04:46:18;;;;;;;17.93;16.97;;;14.00;1.00;;;;;;5091167;28;20445;-82
2023/10/19 04:48:49;;;;;;;19.07;18.00;;;14.00;1.00;;;;;;5089790;28;20515;-81
2023/10/19 04:51:18;;;;;;;30.77;28.07;;;14.00;1.00;;;;;;5092337;28;20454;-82
2023/10/19 04:53:46;;;;;;;464.40;231.10;;;14.00;1.00;;;;;;5088591;28;20485;-81
2023/10/19 04:56:14;;;;;;;114.97;69.80;;;14.00;1.00;;;;;;5088573;28;20457;-82
2023/10/19 04:58:42;;;;;;;50.70;40.73;;;13.90;1.00;;;;;;5089512;28;20504;-81
2023/10/19 05:01:11;;;;;;;33.27;30.37;;;14.00;1.00;;;;;;5089583;28;21469;-82
2023/10/19 05:03:40;;;;;;;21.20;20.10;;;14.00;1.00;;;;;;5090115;28;20484;-81
2023/10/19 05:06:10;;;;;;;18.87;17.97;;;14.10;1.00;;;;;;5088098;28;20461;-83
2023/10/19 05:08:38;;;;;;;18.93;18.13;;;14.10;1.00;;;;;;5091635;28;20575;-82
2023/10/19 05:11:06;;;;;;;18.57;17.83;;;14.20;1.00;;;;;;5090380;28;20462;-82
2023/10/19 05:13:36;;;;;;;18.43;17.53;;;14.20;1.00;;;;;;5090797;28;20481;-83
2023/10/19 05:16:04;;;;;;;18.47;17.60;;;14.20;1.00;;;;;;5085496;28;20547;-82
2023/10/19 05:18:33;;;;;;;18.13;17.23;;;14.20;1.00;;;;;;5087283;28;20531;-83
2023/10/19 05:21:02;;;;;;;17.70;17.00;;;14.20;1.00;;;;;;5089482;28;20465;-83
2023/10/19 05:23:31;;;;;;;17.80;17.00;;;14.20;1.00;;;;;;5096021;28;20477;-82
2023/10/19 05:26:03;;;;;;;17.03;16.33;;;14.20;1.00;;;;;;5092505;28;20466;-82
2023/10/19 05:28:31;;;;;;;17.50;16.80;;;14.20;1.00;;;;;;5092388;28;20450;-82
2023/10/19 05:30:59;;;;;;;19.17;18.07;;;14.20;1.00;;;;;;5086188;28;20547;-82
2023/10/19 05:33:29;;;;;;;17.40;16.70;;;14.20;1.00;;;;;;5089504;28;20553;-82
2023/10/19 05:35:58;;;;;;;19.83;18.73;;;14.20;1.00;;;;;;5087548;28;21241;-82
2023/10/19 05:38:27;;;;;;;18.77;17.63;;;14.20;1.00;;;;;;5096485;28;20556;-82
2023/10/19 05:40:58;;;;;;;17.80;16.97;;;14.20;1.00;;;;;;5092375;28;21485;-82
2023/10/19 05:43:28;;;;;;;18.73;17.60;;;14.10;1.00;;;;;;5092024;28;20465;-83
2023/10/19 05:45:58;;;;;;;18.27;17.13;;;14.10;1.00;;;;;;5090200;28;20433;-83
2023/10/19 05:48:26;;;;;;;19.13;17.60;;;14.10;1.00;;;;;;5089766;28;20568;-82
2023/10/19 05:50:55;;;;;;;18.50;17.60;;;14.10;1.00;;;;;;5091835;28;20451;-82
2023/10/19 05:53:23;;;;;;;18.47;17.67;;;14.10;1.00;;;;;;5089788;28;20486;-82
2023/10/19 05:55:51;;;;;;;18.80;17.90;;;14.20;1.00;;;;;;5090707;28;20467;-82
2023/10/19 05:58:21;;;;;;;17.90;17.20;;;14.10;1.00;;;;;;5090759;28;20449;-82
2023/10/19 06:00:51;;;;;;;18.70;17.70;;;14.30;1.00;;;;;;5090824;28;20857;-82
2023/10/19 06:03:20;;;;;;;18.10;17.30;;;14.20;1.00;;;;;;5093874;28;20519;-82
2023/10/19 06:05:48;;;;;;;18.47;17.60;;;14.30;1.00;;;;;;5089361;28;20453;-82
2023/10/19 06:08:16;;;;;;;17.77;17.07;;;14.30;1.00;;;;;;5091792;28;20456;-82
2023/10/19 06:10:51;;;;;;;18.13;17.23;;;14.30;1.00;;;;;;5092750;28;21260;-83
2023/10/19 06:13:21;;;;;;;18.50;17.40;;;14.30;1.00;;;;;;5098175;28;20477;-82
2023/10/19 06:15:51;;;;;;;19.10;18.00;;;14.30;1.00;;;;;;5097259;28;21289;-82
2023/10/19 06:18:20;;;;;;;18.97;17.50;;;14.20;1.00;;;;;;5095497;27;20483;-82
2023/10/19 06:20:51;;;;;;;18.80;17.87;;;14.20;1.00;;;;;;5094391;28;20448;-82
2023/10/19 06:23:19;;;;;;;18.93;17.97;;;14.20;1.00;;;;;;5090306;28;21095;-82
2023/10/19 06:25:48;;;;;;;18.63;17.70;;;14.20;1.00;;;;;;5092190;28;20965;-82
2023/10/19 06:28:16;;;;;;;18.20;17.40;;;14.20;1.00;;;;;;5096273;28;20446;-82
2023/10/19 06:30:48;;;;;;;18.33;17.43;;;14.20;1.00;;;;;;5095439;28;21042;-82
2023/10/19 06:33:16;;;;;;;17.80;17.00;;;14.10;1.00;;;;;;5093894;28;20485;-83
2023/10/19 06:35:45;;;;;;;18.60;17.63;;;14.10;1.00;;;;;;5096207;28;21311;-82
2023/10/19 06:38:13;;;;;;;18.07;17.20;;;14.10;1.00;;;;;;5096545;28;20450;-82
2023/10/19 06:40:42;;;;;;;19.00;18.00;;;14.20;1.00;;;;;;5095043;28;20466;-82
2023/10/19 06:43:11;;;;;;;18.83;17.80;;;14.20;1.00;;;;;;5090063;28;21402;-82
2023/10/19 06:45:39;;;;;;;18.00;17.30;;;14.20;1.00;;;;;;5092969;28;20542;-83
2023/10/19 06:48:09;;;;;;;18.30;17.40;;;14.20;1.00;;;;;;5092374;28;20458;-82
2023/10/19 06:50:37;;;;;;;19.00;17.90;;;14.20;1.00;;;;;;5092044;27;20636;-83
2023/10/19 06:53:06;;;;;;;18.07;17.37;;;14.20;1.00;;;;;;5102943;28;20481;-87
2023/10/19 06:55:34;;;;;;;19.20;18.30;;;14.20;1.00;;;;;;5100635;28;20473;-89
2023/10/19 06:58:04;;;;;;;18.30;17.50;;;14.30;1.00;;;;;;5104121;28;20457;-89
2023/10/19 07:00:33;;;;;;;18.03;17.30;;;14.40;1.00;;;;;;5099230;28;20474;-89
2023/10/19 07:03:03;;;;;;;18.83;17.93;;;14.40;1.00;;;;;;5103693;28;20476;-89
2023/10/19 07:05:32;;;;;;;18.13;17.23;;;14.40;1.00;;;;;;5105375;28;20461;-88
2023/10/19 07:08:01;;;;;;;18.60;17.50;;;14.40;1.00;;;;;;5098027;28;20442;-88
2023/10/19 07:10:30;;;;;;;18.20;17.27;;;14.40;1.00;;;;;;5101376;28;20504;-89
2023/10/19 07:12:59;;;;;;;17.97;17.07;;;14.40;1.00;;;;;;5104265;28;20477;-92
2023/10/19 07:15:29;;;;;;;18.70;17.60;;;14.40;1.00;;;;;;5100280;28;20528;-89
2023/10/19 07:17:58;;;;;;;18.27;17.47;;;14.40;1.00;;;;;;5100422;28;20478;-89
2023/10/19 07:20:28;;;;;;;17.87;16.87;;;14.50;1.00;;;;;;5097618;28;20462;-84
2023/10/19 07:23:03;;;;;;;17.47;16.70;;;14.50;1.00;;;;;;5093602;28;20544;-81
2023/10/19 07:25:31;;;;;;;18.40;17.60;;;14.50;1.00;;;;;;5091925;28;20445;-83
2023/10/19 07:28:00;;;;;;;18.20;17.20;;;14.50;1.00;;;;;;5093744;28;20860;-83
2023/10/19 07:30:28;;;;;;;20.30;19.00;;;14.60;1.00;;;;;;5096281;28;20441;-83
2023/10/19 07:32:58;;;;;;;19.30;18.40;;;14.60;1.00;;;;;;5095658;28;20481;-82
2023/10/19 07:35:27;;;;;;;18.00;17.20;;;14.60;1.00;;;;;;5091335;28;20496;-82
2023/10/19 07:37:57;;;;;;;18.10;17.30;;;14.70;1.00;;;;;;5093763;28;20450;-83
2023/10/19 07:40:25;;;;;;;17.97;17.27;;;14.70;99.90;;;;;;5094497;28;20474;-83
2023/10/19 07:42:54;;;;;;;18.13;17.30;;;14.70;99.90;;;;;;5094428;28;20465;-83
2023/10/19 07:45:23;;;;;;;17.73;16.93;;;14.70;1.00;;;;;;5090449;28;20457;-83
2023/10/19 07:47:51;;;;;;;17.90;17.20;;;14.70;99.90;;;;;;5090072;27;20482;-82
2023/10/19 07:50:22;;;;;;;18.50;17.60;;;14.80;99.90;;;;;;5092675;27;20451;-83
2023/10/19 07:52:53;;;;;;;19.13;17.77;;;14.80;99.90;;;;;;5094480;27;20466;-83
2023/10/19 07:55:24;;;;;;;18.60;17.70;;;14.80;99.90;;;;;;5090482;27;20896;-82
2023/10/19 07:57:53;;;;;;;17.90;17.20;;;14.80;99.90;;;;;;5091244;28;20461;-83
2023/10/19 08:00:23;;;;;;;17.50;16.77;;;14.90;99.90;;;;;;5091832;28;20557;-83
2023/10/19 08:02:53;;;;;;;18.23;17.43;;;14.90;99.90;;;;;;5094987;27;20585;-83
2023/10/19 08:05:22;;;;;;;17.90;17.10;;;15.00;99.90;;;;;;5091727;28;20451;-83
2023/10/19 08:07:51;;;;;;;19.20;18.30;;;15.10;99.90;;;;;;5092516;28;20446;-83
2023/10/19 08:10:21;;;;;;;18.73;17.83;;;15.20;99.90;;;;;;5093652;28;20958;-83
2023/10/19 08:12:53;;;;;;;17.90;17.17;;;15.40;99.90;;;;;;5093138;28;20487;-83
2023/10/19 08:15:21;;;;;;;18.20;17.43;;;15.50;99.90;;;;;;5090565;28;20449;-83
2023/10/19 08:17:53;;;;;;;18.10;17.27;;;15.60;99.90;;;;;;5089735;28;20498;-83
2023/10/19 08:20:30;;;;;;;19.47;18.67;;;15.80;99.90;;;;;;5087972;28;20470;-83
2023/10/19 08:23:02;;;;;;;19.50;18.60;;;16.00;1.00;;;;;;5089597;28;21330;-84
2023/10/19 08:25:31;;;;;;;18.23;17.40;;;16.30;1.00;;;;;;5089086;28;20449;-82
2023/10/19 08:28:04;;;;;;;18.67;17.80;;;16.60;99.90;;;;;;5089611;28;20449;-84
2023/10/19 08:30:34;;;;;;;18.80;18.10;;;16.80;14.70;;;;;;5089065;28;20447;-84
2023/10/19 08:33:03;;;;;;;19.23;18.53;;;16.80;99.90;;;;;;5087968;28;20548;-85
2023/10/19 08:35:32;;;;;;;18.47;17.57;;;16.80;99.90;;;;;;5088164;28;21476;-83
2023/10/19 08:38:03;;;;;;;18.30;17.50;;;16.90;1.00;;;;;;5106077;28;20488;-91
2023/10/19 08:40:32;;;;;;;18.20;17.50;;;17.00;99.90;;;;;;5097731;28;21034;-91
2023/10/19 08:43:04;;;;;;;19.10;18.30;;;17.10;1.00;;;;;;5101758;28;20521;-91
2023/10/19 08:45:35;;;;;;;18.83;18.03;;;17.10;1.00;;;;;;5092657;28;20474;-91
2023/10/19 08:48:05;;;;;;;18.90;18.10;;;17.20;99.90;;;;;;5098945;28;20450;-91
2023/10/19 08:50:34;;;;;;;19.80;18.77;;;17.20;99.90;;;;;;5101076;27;20447;-90
2023/10/19 08:53:06;;;;;;;19.03;18.23;;;17.20;1.00;;;;;;5095222;28;20470;-90
2023/10/19 08:55:35;;;;;;;19.00;18.17;;;17.20;1.00;;;;;;5096268;28;20519;-91
2023/10/19 08:58:19;;;;;;;18.83;17.93;;;17.10;1.00;;;;;;5103677;28;20803;-90
2023/10/19 09:00:53;;;;;;;19.27;18.30;;;17.00;99.90;;;;;;5102091;28;20525;-90
2023/10/19 09:03:24;;;;;;;18.63;17.80;;;17.00;1.00;;;;;;5095731;28;20473;-91
2023/10/19 09:05:56;;;;;;;20.37;19.27;;;16.90;99.90;;;;;;5091585;28;20442;-91
2023/10/19 09:08:25;;;;;;;18.57;17.87;;;16.90;1.00;;;;;;5098579;28;20926;-91
2023/10/19 09:10:55;;;;;;;19.07;18.07;;;16.90;99.90;;;;;;5099345;28;20445;-91
2023/10/19 09:13:25;;;;;;;19.07;18.27;;;16.80;14.10;;;;;;5100519;28;21157;-91
2023/10/19 09:15:55;;;;;;;18.60;17.80;;;16.70;99.90;;;;;;5099678;28;20449;-91
2023/10/19 09:18:27;;;;;;;18.93;18.07;;;16.70;99.90;;;;;;5097802;28;20454;-91
2023/10/19 09:21:07;;;;;;;18.50;17.80;;;17.00;99.90;;;;;;5103321;28;20469;-91
2023/10/19 09:23:37;;;;;;;18.90;18.00;;;17.10;99.90;;;;;;5103157;28;20468;-90
2023/10/19 09:26:07;;;;;;;18.50;17.73;;;17.00;1.00;;;;;;5095171;28;21004;-91
2023/10/19 09:28:38;;;;;;;18.53;17.50;;;17.10;99.90;;;;;;5096580;28;20446;-91
2023/10/19 09:31:10;;;;;;;17.60;16.90;;;17.10;1.00;;;;;;5114911;28;20517;-90
2023/10/19 09:33:43;;;;;;;18.20;17.50;;;17.20;53.80;;;;;;5098084;28;20540;-91
2023/10/19 09:36:13;;;;;;;17.83;17.10;;;17.30;99.90;;;;;;5094256;28;20465;-90
2023/10/19 09:38:48;;;;;;;17.07;16.47;;;17.40;99.90;;;;;;5103437;28;20450;-91
2023/10/19 09:41:18;;;;;;;18.50;17.30;;;17.50;99.90;;;;;;5099270;28;20481;-91
2023/10/19 09:43:49;;;;;;;18.40;17.53;;;17.40;99.90;;;;;;5105023;28;20470;-91
2023/10/19 09:46:23;;;;;;;18.40;17.70;;;17.30;99.90;;;;;;5095215;28;20446;-90
2023/10/19 09:48:52;;;;;;;18.20;17.50;;;17.20;1.00;;;;;;5100386;28;20450;-90
2023/10/19 09:51:21;;;;;;;18.37;17.60;;;17.20;1.00;;;;;;5098580;28;20489;-83
2023/10/19 09:53:54;;;;;;;18.03;17.33;;;17.10;99.90;;;;;;5094499;28;20961;-83
2023/10/19 09:56:27;;;;;;;18.67;17.90;;;17.10;1.00;;;;;;5094013;28;20454;-83
2023/10/19 09:59:01;;;;;;;17.93;17.30;;;17.10;1.00;;;;;;5097630;28;20457;-82
2023/10/19 10:01:30;;;;;;;18.63;17.90;;;17.00;99.90;;;;;;5094504;28;20491;-83
2023/10/19 10:03:59;;;;;;;18.47;17.57;;;16.90;1.00;;;;;;5094131;27;21242;-83
2023/10/19 10:06:52;;;;;;;18.30;17.50;;;16.90;1.00;;;;;;5095946;27;20530;-82
2023/10/19 10:09:21;;;;;;;18.30;17.47;;;16.90;35.80;;;;;;5094288;28;20450;-83
2023/10/19 10:11:50;;;;;;;18.53;17.77;;;16.90;1.00;;;;;;5093743;28;20570;-83
2023/10/19 10:14:25;;;;;;;18.80;17.90;;;16.90;95.60;;;;;;5097595;28;20564;-84
2023/10/19 10:17:02;;;;;;;18.33;17.53;;;17.00;1.00;;;;;;5110232;27;20529;-84
2023/10/19 10:19:30;;;;;;;17.70;16.90;;;16.90;1.00;;;;;;5095320;28;20999;-84
2023/10/19 10:22:11;;;;;;;17.80;17.10;;;17.00;1.00;;;;;;5093604;28;20474;-83
2023/10/19 10:24:42;;;;;;;18.27;17.37;;;16.90;1.00;;;;;;5092646;28;20455;-83
2023/10/19 10:27:13;;;;;;;18.30;17.20;;;16.90;99.40;;;;;;5093505;27;20452;-83
2023/10/19 10:29:58;;;;;;;18.33;17.30;;;16.90;99.90;;;;;;5095690;28;20453;-83
2023/10/19 10:32:47;;;;;;;17.67;16.97;;;16.90;99.90;;;;;;5094668;28;20461;-83
2023/10/19 10:35:54;;;;;;;17.73;16.87;;;16.90;99.90;;;;;;5095885;28;20438;-83
2023/10/19 10:38:23;;;;;;;17.90;17.00;;;16.90;99.90;;;;;;5092886;28;20446;-83
2023/10/19 10:40:53;;;;;;;17.93;16.93;;;16.90;1.00;;;;;;5094690;28;20465;-83
2023/10/19 10:43:23;;;;;;;18.70;17.87;;;16.90;1.00;;;;;;5095259;28;20546;-83
2023/10/19 10:45:53;;;;;;;17.20;16.50;;;16.90;99.90;;;;;;5095247;28;21169;-83
2023/10/19 10:48:22;;;;;;;18.83;17.90;;;16.90;99.90;;;;;;5094111;28;20449;-82
2023/10/19 10:50:51;;;;;;;18.67;17.77;;;16.80;99.90;;;;;;5089642;28;20474;-83
2023/10/19 10:53:19;;;;;;;19.00;18.30;;;16.80;1.00;;;;;;5092643;28;20991;-83
2023/10/19 10:55:47;;;;;;;18.23;17.33;;;16.70;1.00;;;;;;5092859;28;20450;-84
2023/10/19 10:58:16;;;;;;;17.80;17.00;;;16.70;99.90;;;;;;5096897;28;20658;-83
2023/10/19 11:00:46;;;;;;;17.10;16.50;;;16.80;99.90;;;;;;5089890;28;20443;-83
2023/10/19 11:03:16;;;;;;;17.87;17.17;;;16.70;99.90;;;;;;5094137;28;20565;-84
2023/10/19 11:05:46;;;;;;;17.43;16.63;;;16.80;99.90;;;;;;5089420;28;20544;-85
2023/10/19 11:08:16;;;;;;;17.67;16.73;;;16.80;99.90;;;;;;5095680;28;20446;-84
2023/10/19 11:10:46;;;;;;;18.20;17.30;;;16.80;99.90;;;;;;5094914;28;20585;-84
2023/10/19 11:13:16;;;;;;;17.90;16.87;;;16.80;99.90;;;;;;5096820;28;20591;-84
2023/10/19 11:15:50;;;;;;;17.60;16.80;;;16.70;1.00;;;;;;5096789;28;20973;-83
2023/10/19 11:18:44;;;;;;;17.80;17.00;;;16.70;1.00;;;;;;5097975;28;20454;-83
2023/10/19 11:21:14;;;;;;;17.03;16.37;;;16.70;1.00;;;;;;5091868;28;20470;-83
2023/10/19 11:23:44;;;;;;;17.60;16.90;;;16.70;75.80;;;;;;5095967;28;20477;-83
2023/10/19 11:26:14;;;;;;;17.30;16.60;;;16.70;99.90;;;;;;5095583;28;21288;-83
2023/10/19 11:28:50;;;;;;;18.20;17.40;;;16.60;99.90;;;;;;5092912;28;20529;-83
2023/10/19 11:31:21;;;;;;;19.30;18.10;;;16.60;99.90;;;;;;5095027;28;20486;-84
2023/10/19 11:33:53;;;;;;;17.27;16.47;;;16.60;99.90;;;;;;5092891;28;20474;-83
2023/10/19 11:36:24;;;;;;;19.43;18.07;;;16.60;99.90;;;;;;5092411;28;20450;-82
2023/10/19 11:38:53;;;;;;;17.93;17.13;;;16.60;99.90;;;;;;5094963;28;20459;-84
2023/10/19 11:41:23;;;;;;;18.17;17.27;;;16.60;1.00;;;;;;5090006;28;20460;-83
2023/10/19 11:43:51;;;;;;;17.30;16.40;;;16.60;1.00;;;;;;5093712;28;20497;-83
2023/10/19 11:46:22;;;;;;;17.40;16.70;;;16.60;1.00;;;;;;5094443;28;20442;-82
2023/10/19 11:48:52;;;;;;;17.50;16.80;;;16.60;1.00;;;;;;5096855;27;20452;-83
2023/10/19 11:51:20;;;;;;;17.10;16.40;;;16.60;1.00;;;;;;5094002;28;20461;-83
2023/10/19 11:53:49;;;;;;;17.13;16.43;;;16.60;1.00;;;;;;5103941;27;20469;-83
2023/10/19 11:56:17;;;;;;;17.60;16.80;;;16.60;1.00;;;;;;5091105;28;20621;-83
2023/10/19 11:58:46;;;;;;;16.87;16.27;;;16.50;1.00;;;;;;5094869;28;20469;-82
2023/10/19 12:01:16;;;;;;;16.17;15.60;;;16.50;1.00;;;;;;5090398;28;20457;-83
2023/10/19 12:03:48;;;;;;;17.27;16.30;;;16.50;1.00;;;;;;5095433;28;20477;-83
2023/10/19 12:06:20;;;;;;;17.10;16.40;;;16.50;1.00;;;;;;5091453;27;20532;-85
2023/10/19 12:08:48;;;;;;;16.23;15.60;;;16.50;1.00;;;;;;5095217;28;20445;-85
2023/10/19 12:11:18;;;;;;;16.13;15.53;;;16.50;1.00;;;;;;5093715;28;20478;-85
2023/10/19 12:13:49;;;;;;;15.63;15.03;;;16.50;1.00;;;;;;5095318;28;20490;-83
2023/10/19 12:16:19;;;;;;;16.23;15.50;;;16.50;1.00;;;;;;5093795;28;21058;-84
2023/10/19 12:18:49;;;;;;;16.73;16.03;;;16.40;1.00;;;;;;5096911;28;20457;-83
2023/10/19 12:21:27;;;;;;;23.67;22.27;;;16.40;1.00;;;;;;5094444;28;20454;-84
2023/10/19 12:23:56;;;;;;;17.53;16.73;;;16.40;1.00;;;;;;5096210;28;20478;-85
2023/10/19 12:26:25;;;;;;;17.33;16.63;;;16.50;1.00;;;;;;5093259;28;20453;-84
2023/10/19 12:28:53;;;;;;;18.37;17.50;;;16.50;1.00;;;;;;5093848;28;20457;-85
2023/10/19 12:31:23;;;;;;;16.60;16.00;;;16.40;1.00;;;;;;5095682;28;20437;-84
2023/10/19 12:33:52;;;;;;;17.50;16.80;;;16.40;1.00;;;;;;5096170;28;20469;-85
2023/10/19 12:36:32;;;;;;;18.30;17.40;;;16.40;1.00;;;;;;5094964;28;20490;-84
2023/10/19 12:39:00;;;;;;;18.27;17.40;;;16.40;1.00;;;;;;5097371;28;20441;-84
2023/10/19 12:41:30;;;;;;;18.20;17.30;;;16.40;1.00;;;;;;5090326;28;20441;-84
2023/10/19 12:44:01;;;;;;;17.80;17.03;;;16.40;1.00;;;;;;5094406;28;20481;-84
2023/10/19 12:46:31;;;;;;;18.07;17.27;;;16.40;1.00;;;;;;5096422;28;20452;-85
2023/10/19 12:48:59;;;;;;;18.30;17.60;;;16.40;1.00;;;;;;5092416;28;21193;-84
2023/10/19 12:51:29;;;;;;;17.63;16.77;;;16.40;1.00;;;;;;5095933;28;20449;-86
2023/10/19 12:53:58;;;;;;;18.43;17.47;;;16.40;1.00;;;;;;5095607;28;20903;-85
2023/10/19 12:56:28;;;;;;;17.87;17.07;;;16.40;1.00;;;;;;5095211;28;20450;-83